Time;durP1;ratioP1;P1;durP2;ratioP2;P2;SDS_P1;SDS_P2;PMS_P1;PMS_P2;Temp;Humidity;BMP_temperature;BMP_pressure;BME280_temperature;BME280_humidity;BME280_pressure;Samples;Min_cycle;Max_cycle;Signal;HPM_P1;HPM_P2
2023/10/20 00:01:02;;;;;;;15.15;4.37;;;;;;;20.73;71.71;96243.56;4379768;32;20102;-79
2023/10/20 00:03:29;;;;;;;12.48;4.75;;;;;;;21.10;69.81;96247.31;4379917;32;20386;-80
2023/10/20 00:05:58;;;;;;;13.73;4.40;;;;;;;20.87;70.88;96247.28;4379920;32;20114;-80
2023/10/20 00:08:25;;;;;;;15.82;4.78;;;;;;;20.76;71.15;96245.06;4379841;32;20102;-80
2023/10/20 00:10:57;;;;;;;14.07;4.55;;;;;;;20.54;72.37;96245.84;4380069;32;20090;-80
2023/10/20 00:13:24;;;;;;;12.25;5.03;;;;;;;20.54;72.87;96237.97;4380068;32;20178;-79
2023/10/20 00:15:51;;;;;;;12.40;4.72;;;;;;;20.57;72.25;96245.47;4379485;32;20501;-80
2023/10/20 00:18:18;;;;;;;11.75;4.43;;;;;;;20.47;72.85;96236.03;4380086;32;20102;-80
2023/10/20 00:20:46;;;;;;;11.77;4.50;;;;;;;20.50;72.49;96229.63;4379674;32;20460;-80
2023/10/20 00:23:14;;;;;;;14.82;4.72;;;;;;;20.37;73.16;96217.06;4379793;32;20106;-79
2023/10/20 00:25:42;;;;;;;17.83;4.62;;;;;;;20.82;70.85;96223.38;4379705;32;20114;-80
2023/10/20 00:28:09;;;;;;;14.55;4.62;;;;;;;20.79;70.88;96219.31;4379647;32;20090;-80
2023/10/20 00:30:38;;;;;;;15.73;4.57;;;;;;;20.33;73.42;96207.91;4379942;32;20083;-80
2023/10/20 00:33:06;;;;;;;13.00;5.22;;;;;;;20.71;71.56;96210.69;4379905;32;20517;-80
2023/10/20 00:35:33;;;;;;;15.13;4.68;;;;;;;20.25;73.73;96200.09;4388772;32;20103;-80
2023/10/20 00:38:01;;;;;;;13.60;4.70;;;;;;;20.46;72.91;96197.72;4394888;32;20164;-80
2023/10/20 00:40:28;;;;;;;14.30;4.68;;;;;;;20.34;73.56;96193.81;4394844;32;20094;-79
2023/10/20 00:42:55;;;;;;;14.75;4.30;;;;;;;20.22;74.53;96187.34;4394365;32;20389;-79
2023/10/20 00:45:21;;;;;;;17.15;5.35;;;;;;;20.09;75.66;96185.25;4394585;32;20120;-80
2023/10/20 00:47:48;;;;;;;15.98;5.20;;;;;;;20.38;73.88;96182.00;4394948;32;20157;-79
2023/10/20 00:50:16;;;;;;;13.73;4.72;;;;;;;20.33;74.21;96176.47;4394428;32;20517;-80
2023/10/20 00:52:46;;;;;;;16.62;4.90;;;;;;;20.13;75.79;96170.84;4394762;32;20162;-79
2023/10/20 00:55:14;;;;;;;14.45;4.90;;;;;;;20.57;73.54;96175.56;4394331;32;20175;-79
2023/10/20 00:57:43;;;;;;;14.02;4.95;;;;;;;20.35;74.42;96166.66;4380869;32;20110;-80
2023/10/20 01:00:11;;;;;;;13.82;4.75;;;;;;;20.28;75.44;96164.88;4393782;32;20445;-80
2023/10/20 01:02:38;;;;;;;15.57;5.03;;;;;;;20.33;74.93;96162.56;4394368;32;20078;-80
2023/10/20 01:05:06;;;;;;;17.40;5.10;;;;;;;20.25;75.49;96168.66;4394450;32;20116;-80
2023/10/20 01:07:34;;;;;;;15.48;5.10;;;;;;;20.38;74.95;96161.06;4394772;32;20098;-80
2023/10/20 01:10:05;;;;;;;15.68;5.15;;;;;;;20.40;74.43;96159.06;4394326;32;20153;-80
2023/10/20 01:12:32;;;;;;;13.60;4.75;;;;;;;20.39;74.65;96154.81;4394726;32;20401;-79
2023/10/20 01:14:59;;;;;;;13.73;5.07;;;;;;;20.38;74.69;96155.00;4380751;32;20756;-80
2023/10/20 01:17:27;;;;;;;17.02;5.30;;;;;;;20.48;74.67;96158.25;4394355;32;20098;-79
2023/10/20 01:19:55;;;;;;;15.77;5.18;;;;;;;20.41;74.79;96145.00;4394491;32;20086;-79
2023/10/20 01:22:23;;;;;;;13.68;5.40;;;;;;;20.47;74.52;96151.37;4381027;32;20083;-80
2023/10/20 01:24:50;;;;;;;15.82;5.00;;;;;;;20.26;75.76;96151.16;4393998;32;20116;-79
2023/10/20 01:27:17;;;;;;;15.73;5.12;;;;;;;20.28;75.89;96155.22;4394564;32;20125;-80
2023/10/20 01:29:44;;;;;;;13.57;4.82;;;;;;;20.17;76.51;96159.03;4394336;32;20575;-80
2023/10/20 01:32:11;;;;;;;14.45;4.95;;;;;;;20.05;77.44;96159.59;4394163;32;20094;-80
2023/10/20 01:34:38;;;;;;;12.95;4.70;;;;;;;20.10;77.17;96160.72;4393875;32;20448;-80
2023/10/20 01:37:05;;;;;;;18.15;5.15;;;;;;;20.03;77.51;96158.94;4394334;32;20161;-79
2023/10/20 01:39:32;;;;;;;14.20;5.65;;;;;;;19.93;78.01;96148.69;4393966;32;20506;-79
2023/10/20 01:41:59;;;;;;;14.95;5.20;;;;;;;20.03;77.73;96153.72;4394322;32;20442;-79
2023/10/20 01:44:26;;;;;;;12.73;4.90;;;;;;;19.89;78.27;96140.34;4403728;27;20205;-79
2023/10/20 01:46:53;;;;;;;15.75;5.28;;;;;;;20.09;77.52;96158.25;4393918;32;20105;-79
2023/10/20 01:49:20;;;;;;;16.67;5.28;;;;;;;20.27;76.28;96143.13;4394126;32;20194;-80
2023/10/20 01:51:47;;;;;;;13.40;5.37;;;;;;;19.87;78.15;96129.22;4393812;32;20116;-80
2023/10/20 01:54:14;;;;;;;13.30;4.53;;;;;;;20.50;74.97;96130.06;4392961;32;20565;-80
2023/10/20 01:56:41;;;;;;;17.90;5.93;;;;;;;20.08;77.12;96130.44;4378888;32;20154;-79
2023/10/20 01:59:08;;;;;;;19.27;5.07;;;;;;;20.25;76.50;96128.56;4378721;32;20100;-79
2023/10/20 02:01:35;;;;;;;23.87;6.97;;;;;;;20.15;77.02;96134.00;4378957;32;20153;-79
2023/10/20 02:04:02;;;;;;;22.17;6.78;;;;;;;19.96;78.10;96123.97;4365240;32;20149;-80
2023/10/20 02:06:29;;;;;;;16.98;5.55;;;;;;;19.82;79.51;96123.69;4365149;32;20107;-79
2023/10/20 02:08:57;;;;;;;18.75;5.45;;;;;;;20.02;78.31;96118.06;4378819;32;20108;-79
2023/10/20 02:11:24;;;;;;;16.30;6.80;;;;;;;19.88;78.51;96102.09;4379739;32;20162;-79
2023/10/20 02:13:51;;;;;;;18.52;5.55;;;;;;;19.99;78.72;96118.38;4380524;32;20090;-79
2023/10/20 02:16:18;;;;;;;14.02;5.12;;;;;;;19.97;78.37;96115.13;4380500;32;20106;-79
2023/10/20 02:18:45;;;;;;;15.93;6.00;;;;;;;19.52;81.05;96106.91;4380846;32;20409;-79
2023/10/20 02:21:12;;;;;;;13.18;5.82;;;;;;;19.82;79.66;96108.00;4380551;32;20175;-80
2023/10/20 02:23:39;;;;;;;15.10;5.70;;;;;;;19.76;80.16;96107.84;4380582;32;20087;-80
2023/10/20 02:26:08;;;;;;;16.48;5.68;;;;;;;19.59;81.24;96107.91;4380269;32;20094;-80
2023/10/20 02:28:36;;;;;;;15.20;5.60;;;;;;;19.55;81.88;96101.38;4354740;32;20087;-79
2023/10/20 02:31:11;;;;;;;14.43;6.28;;;;;;;19.60;81.23;96088.63;4380733;32;20125;-79
2023/10/20 02:33:39;;;;;;;20.52;5.80;;;;;;;19.62;81.29;96093.69;4380701;32;20151;-80
2023/10/20 02:36:06;;;;;;;19.77;5.93;;;;;;;19.78;80.46;96098.00;4366646;32;20103;-80
2023/10/20 02:38:33;;;;;;;16.62;5.57;;;;;;;19.65;81.35;96095.94;4380780;32;20099;-80
2023/10/20 02:41:00;;;;;;;16.55;5.72;;;;;;;19.98;79.41;96096.63;4380398;32;20091;-80
2023/10/20 02:43:27;;;;;;;19.73;5.72;;;;;;;19.97;79.92;96089.75;4380476;32;20447;-79
2023/10/20 02:45:57;;;;;;;17.52;6.55;;;;;;;19.89;80.40;96087.19;4494077;27;20097;-80
2023/10/20 02:48:24;;;;;;;16.95;5.60;;;;;;;20.05;79.89;96091.53;4410387;32;20089;-80
2023/10/20 02:50:51;;;;;;;18.40;5.75;;;;;;;20.11;79.56;96090.84;4410680;32;20090;-80
2023/10/20 02:53:18;;;;;;;17.05;6.28;;;;;;;20.36;78.74;96097.56;4410725;32;20142;-80
2023/10/20 02:55:46;;;;;;;16.77;5.62;;;;;;;20.16;79.91;96099.81;4410408;27;20162;-80
2023/10/20 02:58:16;;;;;;;20.55;6.28;;;;;;;20.20;79.72;96090.63;4392936;32;20112;-79
2023/10/20 03:00:44;;;;;;;14.05;5.85;;;;;;;19.97;80.90;96091.56;4395611;32;20124;-80
2023/10/20 03:03:13;;;;;;;16.42;5.87;;;;;;;19.87;82.03;96086.53;4395079;32;20430;-79
2023/10/20 03:05:43;;;;;;;14.85;5.80;;;;;;;19.94;81.47;96087.50;4403956;32;20416;-80
2023/10/20 03:08:11;;;;;;;16.62;6.22;;;;;;;19.93;81.38;96089.28;4410578;32;20103;-80
2023/10/20 03:10:38;;;;;;;19.58;5.82;;;;;;;19.96;80.90;96090.75;4410209;32;20086;-79
2023/10/20 03:13:05;;;;;;;15.60;5.50;;;;;;;20.06;80.25;96093.16;4410596;32;20110;-80
2023/10/20 03:15:32;;;;;;;22.10;6.35;;;;;;;20.34;78.65;96089.06;4410134;32;20150;-80
2023/10/20 03:17:59;;;;;;;18.52;5.93;;;;;;;20.17;79.35;96071.81;4410218;32;20353;-79
2023/10/20 03:20:30;;;;;;;18.60;6.03;;;;;;;19.82;81.69;96078.38;4409139;32;20083;-80
2023/10/20 03:22:58;;;;;;;17.60;5.75;;;;;;;20.22;79.71;96077.38;4409683;32;20124;-79
2023/10/20 03:25:26;;;;;;;17.45;5.50;;;;;;;19.99;81.25;96074.72;4410212;32;20090;-80
2023/10/20 03:27:53;;;;;;;19.05;6.37;;;;;;;20.22;80.18;96079.97;4410505;32;20112;-80
2023/10/20 03:30:20;;;;;;;20.75;6.20;;;;;;;20.22;79.65;96086.03;4410212;32;20077;-80
2023/10/20 03:32:50;;;;;;;15.65;5.87;;;;;;;20.38;78.87;96084.28;4410437;32;20105;-80
2023/10/20 03:35:17;;;;;;;20.05;5.82;;;;;;;20.49;78.05;96089.16;4410392;32;20101;-80
2023/10/20 03:37:45;;;;;;;18.90;6.32;;;;;;;20.33;78.48;96081.38;4410243;32;20143;-80
2023/10/20 03:40:16;;;;;;;22.75;6.45;;;;;;;20.50;78.07;96088.97;4410371;32;20430;-79
2023/10/20 03:42:43;;;;;;;14.23;5.45;;;;;;;20.60;77.46;96099.22;4410512;32;20095;-79
2023/10/20 03:45:11;;;;;;;15.68;5.65;;;;;;;20.46;77.83;96100.81;4409792;32;20090;-79
2023/10/20 03:47:39;;;;;;;15.00;5.55;;;;;;;20.03;80.67;96096.13;4410522;32;20180;-79
2023/10/20 03:50:16;;;;;;;18.08;5.93;;;;;;;20.20;80.02;96103.72;4410243;32;20635;-79
2023/10/20 03:52:45;;;;;;;;;;;;;;;20.23;79.55;96105.19;4410361;32;20094;-79
2023/10/20 03:55:15;;;;;;;15.40;5.50;;;;;;;20.38;79.09;96110.47;4410025;32;20368;-80
2023/10/20 03:57:43;;;;;;;14.23;5.62;;;;;;;20.33;78.57;96097.09;4410232;32;20090;-80
2023/10/20 04:03:10;;;;;;;20.10;5.70;;;;;;;20.31;78.58;96093.81;4403172;32;20487;-79
2023/10/20 04:05:37;;;;;;;23.42;6.12;;;;;;;20.26;78.96;96093.53;4409885;32;20366;-80
2023/10/20 04:08:05;;;;;;;17.45;5.93;;;;;;;20.23;78.91;96079.00;4410161;32;20139;-80
2023/10/20 04:10:33;;;;;;;17.25;5.72;;;;;;;20.46;78.21;96081.66;4410189;32;20404;-80
2023/10/20 04:13:02;;;;;;;19.17;6.18;;;;;;;20.27;78.93;96075.03;4409893;32;20158;-80
2023/10/20 04:15:32;;;;;;;17.05;6.07;;;;;;;20.32;78.63;96064.88;4410061;32;20102;-79
2023/10/20 04:17:59;;;;;;;18.67;5.80;;;;;;;20.45;77.73;96059.87;4410120;32;20432;-80
2023/10/20 04:20:26;;;;;;;16.67;5.60;;;;;;;20.89;75.30;96046.09;4409778;32;20090;-80
2023/10/20 04:22:58;;;;;;;19.67;5.93;;;;;;;20.47;77.58;96041.38;4410083;32;20164;-80
2023/10/20 04:25:33;;;;;;;14.07;5.80;;;;;;;20.57;77.14;96052.41;4409943;32;20094;-80
2023/10/20 04:41:55;;;;;;;16.12;5.87;;;;;;;20.46;78.81;96016.16;4409708;32;20097;-79
2023/10/20 04:47:36;;;;;;;17.08;6.18;;;;;;;20.35;79.87;96014.75;4409801;32;20086;-79
2023/10/20 05:07:53;;;;;;;14.02;5.18;;;;;;;20.43;79.29;96014.72;4424696;32;20117;-79
2023/10/20 05:10:21;;;;;;;14.15;5.30;;;;;;;20.31;79.56;96000.37;4424709;32;20086;-79
2023/10/20 05:12:48;;;;;;;14.18;5.75;;;;;;;20.20;79.35;95988.50;4425026;32;20111;-79
2023/10/20 05:15:16;;;;;;;15.65;5.82;;;;;;;20.08;80.80;96008.22;4423766;32;20118;-79
2023/10/20 05:17:46;;;;;;;16.62;6.15;;;;;;;19.80;82.48;96004.47;4424901;32;20162;-79
2023/10/20 05:20:13;;;;;;;19.42;5.80;;;;;;;20.00;81.82;95997.00;4398880;32;20465;-79
2023/10/20 05:22:43;;;;;;;14.98;5.85;;;;;;;20.02;81.43;96010.72;4424677;32;20077;-79
2023/10/20 05:25:13;;;;;;;22.92;6.50;;;;;;;20.13;81.07;96010.31;4424594;32;20119;-79
2023/10/20 05:27:40;;;;;;;17.70;6.22;;;;;;;20.03;81.48;96023.63;4424927;32;20364;-79
2023/10/20 05:30:08;;;;;;;20.25;5.85;;;;;;;20.07;81.22;96013.63;4424400;32;20437;-79
2023/10/20 05:32:37;;;;;;;15.40;5.90;;;;;;;20.23;80.30;96014.34;4424768;32;20093;-79
2023/10/20 05:37:39;;;;;;;18.25;5.65;;;;;;;20.27;79.86;96016.59;4426389;27;20500;-79
2023/10/20 05:40:07;;;;;;;18.55;5.60;;;;;;;20.18;80.31;96015.84;4424658;32;20100;-79
2023/10/20 05:42:34;;;;;;;18.60;5.70;;;;;;;20.23;79.79;96013.53;4424707;32;20081;-79
2023/10/20 05:45:10;;;;;;;20.83;6.40;;;;;;;20.47;78.62;96004.69;4433413;27;20484;-79
2023/10/20 05:47:38;;;;;;;15.25;5.25;;;;;;;20.41;78.59;96010.59;4426190;32;20086;-79
2023/10/20 05:50:06;;;;;;;16.67;5.28;;;;;;;20.46;78.28;95996.03;4426433;32;20200;-78
2023/10/20 05:52:35;;;;;;;16.55;5.30;;;;;;;20.61;77.25;96010.94;4420129;32;20085;-79
2023/10/20 05:55:03;;;;;;;17.40;5.40;;;;;;;20.69;76.69;96014.31;4425774;32;20097;-79
2023/10/20 05:57:30;;;;;;;20.33;5.43;;;;;;;20.55;77.05;95994.16;4426036;32;20102;-79
2023/10/20 06:00:00;;;;;;;19.62;5.97;;;;;;;20.66;76.25;96006.00;4426690;32;20100;-78
2023/10/20 06:02:32;;;;;;;23.62;7.05;;;;;;;20.75;75.49;95999.72;4413756;32;20074;-78
2023/10/20 06:04:59;;;;;;;18.77;5.45;;;;;;;20.92;74.57;96000.34;4422973;27;20106;-79
2023/10/20 06:07:27;;;;;;;15.95;5.95;;;;;;;21.02;74.02;96000.91;4426481;32;20116;-79
2023/10/20 06:09:54;;;;;;;15.18;5.45;;;;;;;21.13;72.74;96005.69;4426423;32;20085;-78
2023/10/20 06:12:21;;;;;;;15.07;5.55;;;;;;;21.29;72.17;96018.66;4426104;32;20137;-79
2023/10/20 06:14:49;;;;;;;14.65;5.07;;;;;;;21.46;71.09;96026.34;4426761;32;20121;-78
2023/10/20 06:17:18;;;;;;;16.58;5.65;;;;;;;21.43;70.61;96027.53;4426187;32;20156;-78
2023/10/20 06:19:48;;;;;;;14.60;5.43;;;;;;;21.36;71.17;96016.94;4425884;32;20081;-78
2023/10/20 06:22:16;;;;;;;18.05;6.03;;;;;;;21.34;71.13;96015.50;4426212;32;20099;-77
2023/10/20 06:24:43;;;;;;;16.58;5.65;;;;;;;21.11;72.10;96022.59;4426063;32;20094;-78
2023/10/20 06:27:11;;;;;;;15.02;6.55;;;;;;;21.47;70.67;96038.47;4425675;32;20094;-79
2023/10/20 06:29:52;;;;;;;17.80;5.45;;;;;;;21.43;70.79;96035.41;4412398;32;20164;-79
2023/10/20 06:32:25;;;;;;;18.08;5.05;;;;;;;21.52;70.16;96036.94;4426251;32;20078;-79
2023/10/20 06:34:59;;;;;;;21.45;5.50;;;;;;;21.73;69.02;96024.88;4426066;32;20110;-78
2023/10/20 06:37:46;;;;;;;19.48;5.87;;;;;;;21.70;68.98;96038.37;4425910;32;20102;-78
2023/10/20 06:40:17;;;;;;;14.40;4.57;;;;;;;21.63;69.19;96043.53;4425424;32;20588;-78
2023/10/20 06:42:44;;;;;;;15.80;5.07;;;;;;;21.69;68.32;96034.91;4425983;32;20082;-79
2023/10/20 06:45:11;;;;;;;26.70;6.55;;;;;;;21.81;67.88;96035.28;4411363;32;20109;-77
2023/10/20 06:47:42;;;;;;;18.10;4.85;;;;;;;21.77;68.04;96044.50;4425734;32;20122;-78
2023/10/20 06:50:12;;;;;;;14.93;5.18;;;;;;;21.65;68.11;96037.09;4412855;32;20165;-78
2023/10/20 06:52:39;;;;;;;14.77;4.85;;;;;;;21.47;68.98;96038.47;4425741;32;20189;-78
2023/10/20 06:55:07;;;;;;;13.82;4.45;;;;;;;21.37;69.51;96034.31;4426108;32;20161;-78
2023/10/20 06:57:54;;;;;;;18.35;5.50;;;;;;;21.66;68.38;96045.78;4425364;32;20586;-78
2023/10/20 07:00:21;;;;;;;13.10;4.60;;;;;;;21.48;68.39;96019.09;4425996;32;20090;-79
2023/10/20 07:02:48;;;;;;;14.82;4.70;;;;;;;21.62;68.00;96026.97;4426191;32;20128;-79
2023/10/20 07:05:17;;;;;;;15.10;4.85;;;;;;;21.48;68.49;96021.72;4425598;32;20098;-79
2023/10/20 07:07:44;;;;;;;14.02;3.90;;;;;;;21.78;66.83;96010.19;4425954;32;20448;-78
2023/10/20 07:10:11;;;;;;;14.75;5.03;;;;;;;21.83;66.61;96014.91;4426039;32;20125;-78
2023/10/20 07:12:38;;;;;;;14.57;5.50;;;;;;;21.84;66.20;96003.41;4425876;32;20094;-78
2023/10/20 07:15:05;;;;;;;19.52;5.10;;;;;;;21.86;65.84;96004.81;4425205;32;20459;-78
2023/10/20 07:17:32;;;;;;;17.70;5.03;;;;;;;21.91;65.17;96006.91;4425999;32;20137;-78
2023/10/20 07:20:00;;;;;;;16.67;5.20;;;;;;;21.78;65.59;96019.88;4425860;32;20100;-78
2023/10/20 07:22:28;;;;;;;20.12;4.65;;;;;;;21.84;65.53;96011.25;4411655;32;20424;-78
2023/10/20 07:24:57;;;;;;;15.88;4.85;;;;;;;21.82;65.63;96008.84;4425592;32;20458;-79
2023/10/20 07:27:25;;;;;;;17.52;4.62;;;;;;;21.70;65.88;96015.56;4425744;32;20119;-78
2023/10/20 07:29:52;;;;;;;16.42;4.47;;;;;;;21.87;64.68;95976.75;4425547;32;20173;-78
2023/10/20 07:32:19;;;;;;;12.15;4.28;;;;;;;21.87;64.95;95989.88;4411871;32;20107;-78
2023/10/20 07:34:46;;;;;;;13.43;4.40;;;;;;;21.87;64.57;95985.44;4425810;32;20128;-78
2023/10/20 07:37:16;;;;;;;15.60;4.60;;;;;;;22.12;63.60;95982.50;4412067;32;20101;-78
2023/10/20 07:39:44;;;;;;;15.95;4.45;;;;;;;22.36;62.74;95976.87;4425693;32;20105;-78
2023/10/20 07:42:16;;;;;;;11.70;4.07;;;;;;;22.25;62.85;95976.56;4425788;32;20361;-78
2023/10/20 07:44:43;;;;;;;16.65;4.97;;;;;;;22.10;63.51;95977.44;4425210;32;20110;-78
2023/10/20 07:47:11;;;;;;;14.45;4.35;;;;;;;21.91;63.36;95952.59;4487919;27;20128;-78
2023/10/20 07:49:39;;;;;;;13.88;4.47;;;;;;;22.26;62.86;95986.88;4410407;32;20435;-78
2023/10/20 07:52:07;;;;;;;16.17;4.35;;;;;;;22.48;62.06;95983.25;4410351;32;20122;-78
2023/10/20 07:54:34;;;;;;;19.58;5.37;;;;;;;21.99;63.35;95990.22;4411699;32;20200;-78
2023/10/20 07:57:02;;;;;;;14.38;4.82;;;;;;;22.06;63.12;95997.19;4527660;27;20140;-77
2023/10/20 08:02:44;;;;;;;15.75;4.75;;;;;;;22.53;61.26;95998.41;4426107;32;20139;-78
2023/10/20 08:05:11;;;;;;;16.50;4.05;;;;;;;22.65;60.90;96011.84;4427578;32;20162;-78
2023/10/20 08:07:40;;;;;;;14.55;4.25;;;;;;;22.38;61.43;96019.53;4411065;32;20089;-78
2023/10/20 08:10:07;;;;;;;17.10;4.50;;;;;;;22.40;61.88;96024.59;4410592;32;20437;-78
2023/10/20 08:12:34;;;;;;;14.18;4.40;;;;;;;22.72;60.62;96029.31;4396764;32;20161;-78
2023/10/20 08:15:03;;;;;;;13.13;4.22;;;;;;;22.60;60.49;96016.88;4411908;32;20166;-78
2023/10/20 08:17:30;;;;;;;13.20;3.83;;;;;;;22.79;59.89;96027.56;4629271;27;20109;-78
2023/10/20 08:19:59;;;;;;;13.38;4.30;;;;;;;22.73;59.93;96019.62;4396415;32;20098;-78
2023/10/20 08:22:26;;;;;;;16.30;4.00;;;;;;;22.96;59.44;96019.41;4395049;32;20144;-78
2023/10/20 08:24:53;;;;;;;15.40;4.35;;;;;;;22.63;59.93;96021.75;4394827;32;20107;-78
2023/10/20 08:27:20;;;;;;;14.85;4.15;;;;;;;22.46;60.07;96019.41;4395595;32;20469;-78
2023/10/20 08:29:48;;;;;;;12.82;4.53;;;;;;;22.58;59.98;96017.09;4399932;32;20090;-78
2023/10/20 08:32:15;;;;;;;16.85;4.00;;;;;;;22.69;59.29;95999.97;4395080;32;20607;-78
2023/10/20 08:34:43;;;;;;;17.87;4.57;;;;;;;22.62;59.68;96005.16;4394870;32;20106;-79
2023/10/20 08:37:10;;;;;;;16.45;4.37;;;;;;;22.80;59.15;96016.03;4432654;27;20102;-78
2023/10/20 08:39:37;;;;;;;16.45;4.57;;;;;;;22.89;57.85;96011.50;4424947;32;20092;-78
2023/10/20 08:42:16;;;;;;;13.95;4.22;;;;;;;22.81;57.95;96012.41;4425300;32;20086;-77
2023/10/20 08:44:44;;;;;;;15.65;4.25;;;;;;;22.77;57.16;96000.66;4411780;32;20101;-78
2023/10/20 08:47:19;;;;;;;18.65;4.18;;;;;;;23.03;56.73;96005.31;4426950;32;20098;-80
2023/10/20 08:49:47;;;;;;;12.80;3.97;;;;;;;23.11;56.41;96014.87;4426208;32;20090;-80
2023/10/20 08:52:14;;;;;;;18.12;4.07;;;;;;;22.98;55.79;96015.59;4414026;32;20082;-80
2023/10/20 08:54:46;;;;;;;16.35;3.87;;;;;;;23.40;54.63;95994.59;4426143;32;20094;-80
2023/10/20 08:57:13;;;;;;;14.07;3.67;;;;;;;23.69;53.65;95999.59;4414038;32;20077;-80
2023/10/20 08:59:50;;;;;;;12.90;3.55;;;;;;;23.89;53.32;96004.94;4428955;32;20087;-80
2023/10/20 09:02:18;;;;;;;16.15;4.15;;;;;;;23.68;53.53;96003.22;4417857;32;20188;-80
2023/10/20 09:04:52;;;;;;;11.90;4.05;;;;;;;24.24;52.02;96010.88;4429987;32;20102;-80
2023/10/20 09:07:22;;;;;;;14.13;4.20;;;;;;;24.26;51.13;96003.62;4438319;27;20100;-79
2023/10/20 09:09:49;;;;;;;15.65;3.92;;;;;;;23.89;52.30;96005.75;4433233;32;20144;-81
2023/10/20 09:12:16;;;;;;;17.77;4.22;;;;;;;24.13;51.03;96007.00;4428816;32;20104;-82
2023/10/20 09:14:43;;;;;;;15.30;3.42;;;;;;;24.22;51.33;96005.00;4412365;32;20154;-79
2023/10/20 09:17:23;;;;;;;14.77;4.47;;;;;;;24.41;50.13;96004.25;4425635;32;20115;-79
2023/10/20 09:19:50;;;;;;;16.83;4.03;;;;;;;24.23;50.65;96002.16;4425065;32;20093;-80
2023/10/20 09:22:36;;;;;;;13.65;3.67;;;;;;;24.47;50.05;96002.66;4424044;32;20102;-80
2023/10/20 09:25:10;;;;;;;14.52;4.12;;;;;;;24.49;49.26;95985.63;4428239;32;20102;-78
2023/10/20 09:27:40;;;;;;;14.77;3.28;;;;;;;24.26;50.02;95990.44;4414590;32;20558;-78
2023/10/20 09:30:08;;;;;;;16.25;4.32;;;;;;;24.53;49.15;95949.09;4398920;32;20105;-79
2023/10/20 09:32:39;;;;;;;14.75;3.62;;;;;;;24.68;48.33;95948.91;4398629;32;20082;-79
2023/10/20 09:35:06;;;;;;;13.90;3.72;;;;;;;24.61;47.87;95959.44;4424527;32;20148;-79
2023/10/20 09:37:38;;;;;;;15.80;3.47;;;;;;;25.02;47.38;95982.16;4424702;32;20448;-79
2023/10/20 09:40:07;;;;;;;18.20;3.70;;;;;;;24.74;47.76;95980.53;4424767;32;20086;-79
2023/10/20 09:42:43;;;;;;;15.77;4.37;;;;;;;25.13;47.18;95988.62;4424476;32;20073;-79
2023/10/20 09:45:16;;;;;;;16.63;3.83;;;;;;;24.67;47.12;95956.00;4424474;32;20101;-79
2023/10/20 09:47:45;;;;;;;15.07;4.15;;;;;;;24.74;47.65;95982.34;4410894;32;20178;-79
2023/10/20 09:50:18;;;;;;;12.40;3.78;;;;;;;24.71;47.25;95978.31;4424419;32;20100;-79
2023/10/20 09:52:45;;;;;;;10.73;3.00;;;;;;;24.87;47.14;95986.81;4411247;32;20084;-79
2023/10/20 09:55:13;;;;;;;14.38;4.00;;;;;;;24.96;46.52;95983.75;4410406;32;20106;-79
2023/10/20 09:57:41;;;;;;;8.40;3.03;;;;;;;24.96;46.98;95975.03;4410555;32;20114;-79
2023/10/20 10:00:08;;;;;;;13.23;3.53;;;;;;;24.69;47.20;95959.25;4424296;32;20140;-79
2023/10/20 10:02:35;;;;;;;12.07;3.55;;;;;;;24.60;47.51;95973.66;4424317;32;20104;-79
2023/10/20 10:05:03;;;;;;;13.05;3.95;;;;;;;24.63;47.17;95964.53;4424020;32;20147;-79
2023/10/20 10:07:33;;;;;;;15.80;4.28;;;;;;;24.85;46.80;95965.09;4410297;32;20093;-79
2023/10/20 10:10:02;;;;;;;10.85;3.30;;;;;;;24.78;47.12;95959.84;4424201;32;20089;-79
2023/10/20 10:12:33;;;;;;;16.35;4.60;;;;;;;24.85;47.32;95952.72;4424225;32;20098;-80
2023/10/20 10:15:12;;;;;;;16.55;3.65;;;;;;;25.27;46.52;95961.19;4425630;32;20090;-81
2023/10/20 10:17:51;;;;;;;16.92;3.30;;;;;;;25.68;45.94;95952.91;4416820;32;20084;-80
2023/10/20 10:20:26;;;;;;;12.43;3.70;;;;;;;25.50;46.16;95966.78;4436794;32;20089;-81
2023/10/20 10:23:09;;;;;;;14.50;3.22;;;;;;;25.21;46.68;95967.31;4435482;32;20089;-81
2023/10/20 10:25:41;;;;;;;17.62;3.50;;;;;;;25.27;46.64;95962.00;4427709;32;20102;-81
2023/10/20 10:28:13;;;;;;;12.98;3.90;;;;;;;25.16;46.74;95954.72;4429277;32;20117;-81
2023/10/20 10:30:42;;;;;;;16.17;3.50;;;;;;;25.38;46.71;95945.50;4430693;32;20082;-81
2023/10/20 10:33:11;;;;;;;14.77;3.87;;;;;;;25.46;46.09;95938.37;4436510;32;20062;-82
2023/10/20 10:46:56;;;;;;;;;;;;;;;;;;;;;
2023/10/20 11:05:46;;;;;;;13.43;3.62;;;;;;;25.46;45.70;95928.63;4353993;33;20119;-83
2023/10/20 11:14:23;;;;;;;12.73;3.78;;;;;;;25.33;45.95;95941.88;4342234;33;20095;-81
2023/10/20 11:16:50;;;;;;;13.23;3.85;;;;;;;25.31;45.96;95944.75;4348880;32;20123;-82
2023/10/20 11:19:17;;;;;;;17.60;4.00;;;;;;;25.49;45.31;95911.56;4373247;32;20067;-80
2023/10/20 11:21:48;;;;;;;15.65;4.03;;;;;;;25.81;45.32;95926.44;4369136;32;20055;-79
2023/10/20 11:24:34;;;;;;;13.27;3.30;;;;;;;26.22;44.44;95927.81;4374983;32;20094;-79
2023/10/20 11:27:11;;;;;;;10.40;2.97;;;;;;;26.29;44.10;95914.56;4370037;32;20072;-78
2023/10/20 11:29:42;;;;;;;11.83;3.70;;;;;;;25.74;45.07;95911.69;4373839;32;20091;-79
2023/10/20 11:32:25;;;;;;;15.50;3.42;;;;;;;26.11;44.42;95925.84;4374024;32;20122;-78
2023/10/20 11:34:52;;;;;;;17.87;4.00;;;;;;;26.14;44.10;95920.12;4375428;32;20135;-78
2023/10/20 11:37:19;;;;;;;13.50;3.12;;;;;;;26.28;44.22;95911.09;4376561;32;20079;-78
2023/10/20 11:39:48;;;;;;;15.48;3.85;;;;;;;26.07;44.99;95930.78;4372117;32;20146;-78
2023/10/20 11:42:15;;;;;;;13.85;3.65;;;;;;;26.05;44.65;95931.97;4372734;32;20106;-78
2023/10/20 11:44:55;;;;;;;15.43;3.50;;;;;;;26.23;44.36;95932.88;4375078;32;20565;-78
2023/10/20 11:47:22;;;;;;;12.45;3.25;;;;;;;26.39;43.99;95915.72;4376430;32;20121;-79
2023/10/20 11:49:54;;;;;;;17.20;3.95;;;;;;;26.68;43.19;95916.84;4373168;32;20075;-79
2023/10/20 11:52:24;;;;;;;11.20;3.70;;;;;;;26.89;43.05;95922.78;4366836;32;20142;-79
2023/10/20 11:54:52;;;;;;;11.88;3.62;;;;;;;26.66;43.23;95926.03;4366578;32;20099;-79
2023/10/20 11:57:20;;;;;;;13.93;3.50;;;;;;;26.91;43.07;95913.59;4351736;32;20463;-82
2023/10/20 11:59:47;;;;;;;17.37;3.97;;;;;;;27.46;41.58;95918.09;4365016;32;20173;-82
2023/10/20 12:02:14;;;;;;;19.73;3.40;;;;;;;27.57;41.69;95918.16;4364904;32;20443;-80
2023/10/20 12:04:42;;;;;;;16.62;3.85;;;;;;;28.01;40.42;95915.34;4364946;32;20099;-80
2023/10/20 12:07:09;;;;;;;12.30;3.45;;;;;;;27.96;40.50;95908.84;4365006;32;20095;-79
2023/10/20 12:09:41;;;;;;;14.52;3.83;;;;;;;28.04;40.56;95896.31;4377779;32;20132;-80
2023/10/20 12:12:08;;;;;;;14.00;3.75;;;;;;;28.05;40.14;95890.78;4380069;32;20134;-80
2023/10/20 12:14:35;;;;;;;11.98;3.33;;;;;;;27.35;40.56;95887.88;4379943;32;20137;-80
2023/10/20 12:17:03;;;;;;;20.42;3.40;;;;;;;27.38;40.80;95879.50;4379545;32;20115;-80
2023/10/20 12:19:30;;;;;;;17.00;3.50;;;;;;;27.60;40.50;95898.34;4379843;32;20102;-79
2023/10/20 12:21:57;;;;;;;14.70;3.70;;;;;;;27.46;40.04;95881.03;4379944;32;20082;-79
2023/10/20 12:24:24;;;;;;;16.20;3.40;;;;;;;27.59;39.25;95880.84;4379619;32;20158;-79
2023/10/20 12:26:50;;;;;;;19.75;3.58;;;;;;;27.76;38.58;95886.34;4379784;32;20125;-79
2023/10/20 12:29:19;;;;;;;13.32;3.70;;;;;;;27.75;38.66;95882.88;4379911;32;20095;-79
2023/10/20 12:31:46;;;;;;;14.30;3.45;;;;;;;27.70;38.75;95889.91;4379626;32;20091;-79
2023/10/20 12:34:13;;;;;;;16.62;3.65;;;;;;;27.60;38.58;95887.75;4379813;32;20154;-79
2023/10/20 12:36:43;;;;;;;20.60;3.62;;;;;;;27.44;39.28;95885.75;4379374;32;20826;-80
2023/10/20 12:39:17;;;;;;;17.10;4.10;;;;;;;27.59;39.13;95889.59;4379491;32;20094;-79
2023/10/20 12:41:45;;;;;;;14.10;3.50;;;;;;;27.59;38.72;95886.13;4379989;32;20102;-79
2023/10/20 12:44:13;;;;;;;17.45;3.80;;;;;;;27.30;39.50;95877.94;4379947;32;20150;-79
2023/10/20 12:46:41;;;;;;;13.75;3.65;;;;;;;27.73;38.95;95890.25;4401995;27;20486;-79
2023/10/20 12:49:08;;;;;;;12.00;3.33;;;;;;;27.93;38.81;95893.41;4425189;32;20105;-79
2023/10/20 12:51:40;;;;;;;14.73;3.45;;;;;;;27.72;38.96;95895.78;4424841;32;20449;-80